Weather observations for the past three days for
Grants, Grants-Milan Municipal Airport
Imperial (Metric)
Date Time (mdt) Wind (mph) Vis. (mi.) Weather Sky Cond. Temperature (ºF) Relative Humidity Wind Chill (°F) Heat Index (°F) Pressure Precipitation (in)
Air Dwpt 6 hour altimeter (in) sea level (mb) 1 hr 3 hr 6 hr
Max. Min.
04 19:55 W 9 G 18 10.00 Fair CLR 62.4 17.1 17% 29.98 0.0
04 19:35 W 12 G 20 10.00 Fair CLR 63.5 17.6 17% 29.97 0.0
04 19:15 W 12 G 22 10.00 Fair CLR 64.6 17.4 16% 29.96 0.0
04 18:55 W 13 G 20 10.00 Fair CLR 64.8 18.5 17% 29.96 0.0
04 18:35 W 15 G 24 10.00 Fair CLR 65.7 18.1 16% 29.96 0.0
04 18:15 W 10 G 24 10.00 Fair CLR 66.2 16.7 15% 29.97 0.0
04 17:55 W 21 G 29 10.00 Fair and Breezy CLR 67.6 16.5 71.2 67.1 14% 29.96 0.0
04 17:35 W 15 G 28 10.00 Fair CLR 69.3 16.5 13% 29.97 0.0
04 17:15 W 21 G 31 10.00 Fair and Breezy CLR 71.1 17.8 13% 29.96 0.0
04 16:55 W 14 G 28 10.00 Fair CLR 70.3 17.6 13% 29.97 0.0
04 16:35 W 17 G 30 10.00 Fair CLR 70.5 17.4 13% 29.97 0.0
04 16:15 W 10 G 29 10.00 Fair CLR 70.3 17.2 13% 29.98 0.0
04 15:55 SW 15 G 23 10.00 Fair CLR 69.6 15.8 13% 29.98 0.0
04 15:35 W 22 G 26 10.00 Fair and Breezy CLR 70.3 12.6 11% 29.98 0.0
04 15:15 W 22 G 31 10.00 Fair and Breezy CLR 69.1 9.9 10% 29.99 0.0
04 14:55 W 25 G 33 10.00 Fair and Breezy CLR 68 7 9% 30 0.0
04 14:35 W 20 G 23 10.00 Fair CLR 68.4 10.2 10% 30 0.0
04 14:15 SW 8 G 22 10.00 Fair CLR 68.4 11.5 11% 30 0.0
04 13:55 W 17 G 24 10.00 Fair CLR 69.4 12.9 11% 30.01 0.0
04 13:35 W 21 G 28 10.00 Fair and Breezy CLR 68.5 11.3 11% 30.03 0.0
04 13:15 W 21 G 29 10.00 Fair and Breezy CLR 68.2 10.6 10% 30.03 0.0
04 12:55 W 12 G 24 10.00 Fair CLR 67.3 13.6 12% 30.04 0.0
04 12:35 W 18 G 26 10.00 Fair CLR 67.8 12.6 12% 30.04 0.0
04 12:15 W 16 G 24 10.00 Fair CLR 67.6 10.6 11% 30.04 0.0
04 11:55 W 16 G 32 10.00 Fair CLR 67.5 14.2 67.5 50.5 13% 30.05 0.0
04 11:35 NW 12 G 16 10.00 Fair CLR 66 17.6 15% 30.06 0.0
04 11:15 SW 7 10.00 Fair CLR 65.1 21.2 19% 30.05 0.0
04 10:55 W 8 10.00 Fair CLR 63.1 21.2 20% 30.06 0.0
04 10:35 SW 6 10.00 Fair CLR 61.3 23.5 23% 30.07 0.0
04 10:15 W 6 10.00 Fair CLR 60.1 25.5 27% 30.07 0.0
04 09:55 W 7 10.00 Fair CLR 59.5 25.9 28% 30.07 0.0
04 09:35 W 13 G 18 10.00 Fair CLR 58.5 26.6 30% 30.08 0.0
04 09:15 SW 12 10.00 Fair CLR 57.2 27.3 32% 30.08 0.0
04 08:55 SW 7 10.00 Fair CLR 56.7 27.3 32% 30.08 0.0
04 08:35 W 7 10.00 Fair CLR 56.1 27 33% 30.09 0.0
04 08:15 NW 9 10.00 Fair CLR 55.6 27 33% 30.09 0.0
04 07:55 W 5 10.00 Fair CLR 54.9 26.6 34% 30.09 0.0
04 07:35 NW 7 10.00 Fair CLR 54.5 25.7 33% 30.09 0.0
04 07:15 NW 6 10.00 Fair CLR 53.1 25 34% 30.08 0.0
04 06:55 NW 5 10.00 Fair CLR 51.3 23.9 34% 30.09 0.0
04 06:35 W 5 10.00 Fair CLR 51.3 23.9 34% 30.07 0.0
04 06:15 NW 8 10.00 Fair CLR 52.9 23.9 32% 30.07 0.0
04 05:55 NW 9 10.00 Fair CLR 53.8 24.6 55.4 47.3 32% 30.07 0.0
04 05:35 NW 8 10.00 Fair CLR 54.5 25.2 32% 30.06 0.0
04 05:15 W 9 10.00 Partly Cloudy SCT085 54.5 25.7 33% 30.07 0.0
04 04:55 W 8 10.00 Overcast OVC085 53.1 27.3 37% 30.06 0.0
04 04:35 W 6 10.00 Overcast OVC085 53.6 28.8 39% 30.04 0.0
04 04:15 W 7 10.00 Mostly Cloudy BKN085 53.4 29.7 40% 30.06 0.0
04 03:55 W 5 10.00 Mostly Cloudy BKN085 53.4 31.1 43% 30.04 0.0
04 03:35 SW 3 10.00 Overcast OVC085 47.8 31.3 53% 30.05 0.0
04 03:15 SW 3 10.00 Overcast OVC085 48.6 31.1 51% 30.04 0.0
04 02:55 S 3 10.00 Mostly Cloudy BKN085 49.5 32 51% 30.05 0.0
04 02:35 S 6 10.00 Overcast OVC085 48.7 30.6 50% 47 30.05 0.0
04 02:15 Calm 10.00 Overcast OVC095 51.3 32 48% 30.05 0.0
04 01:55 Calm 10.00 Mostly Cloudy BKN095 50.4 31.3 48% 30.06 0.0
04 01:35 S 3 10.00 Partly Cloudy SCT095 49.8 30.4 47% 30.06 0.0
04 01:15 S 5 10.00 Fair CLR 51.3 30.4 45% 30.07 0.0
04 00:55 S 5 10.00 Fair CLR 50.2 30 46% 30.08 0.0
04 00:35 S 5 10.00 Fair CLR 50.7 29.3 44% 30.08 0.0
04 00:15 SE 3 10.00 Fair CLR 53.6 29.3 39% 30.08 0.0
03 23:55 S 5 10.00 Fair CLR 54.9 30 73.4 53.4 39% 30.08 0.0
03 23:35 S 8 10.00 Partly Cloudy SCT075 SCT100 56.5 31.1 38% 30.07 0.0
03 23:15 SW 12 G 16 10.00 Partly Cloudy SCT075 SCT090 SCT120 57.9 29.3 34% 30.08 0.0
03 22:55 SW 7 10.00 Partly Cloudy SCT013 SCT090 SCT110 59.5 29.1 32% 30.08 0.0
03 22:35 S 12 G 22 10.00 Partly Cloudy SCT095 54.5 29.1 38% 30.1 0.0
03 22:15 SW 8 10.00 Fair CLR 54.1 28.6 38% 30.08 0.0
03 21:55 SW 8 10.00 Fair CLR 55.6 29.7 37% 30.07 0.0
03 21:35 SW 8 10.00 Fair CLR 56.8 29.8 36% 30.07 0.0
03 21:15 SW 8 10.00 Fair CLR 58.6 29.5 33% 30.06 0.0
03 20:55 SW 10 10.00 Partly Cloudy SCT110 59.9 29.3 31% 30.06 0.0
03 20:35 SW 15 10.00 Overcast OVC110 61.2 29.8 31% 30.05 0.0
03 20:15 SW 20 G 35 10.00 Mostly Cloudy BKN110 62.4 29.3 29% 30.06 0.0
03 19:55 SW 21 G 26 10.00 Mostly Cloudy and Breezy BKN110 65.8 22.1 19% 30.04 0.0
03 19:35 SW 12 10.00 Partly Cloudy SCT110 66.4 19 16% 30.03 0.0
03 19:15 SW 10 G 20 10.00 Partly Cloudy SCT120 68.7 16.9 14% 30.03 0.0
03 18:55 W 9 G 20 10.00 Mostly Cloudy BKN120 70.5 15.1 12% 30.03 0.0
03 18:35 SW 13 G 23 10.00 Partly Cloudy SCT120 71.2 14.9 11% 30.03 0.0
03 18:15 W 12 G 25 10.00 Mostly Cloudy BKN120 71.1 14.5 11% 30.03 0.0
03 17:55 W 16 G 22 10.00 Mostly Cloudy BKN120 73.2 12.6 73.2 61.7 10% 30.03 0.0
03 17:35 Calm 10.00 Partly Cloudy SCT120 70.2 12.4 11% 30.03 0.0
03 17:15 SE 5 10.00 Mostly Cloudy BKN120 70.7 12.7 11% 30.04 0.0
03 16:55 S 5 10.00 Partly Cloudy SCT110 69.8 12.2 11% 30.04 0.0
03 16:35 Calm 10.00 Fair CLR 69.4 13.6 11% 30.05 0.0
03 16:15 S 3 10.00 Fair CLR 72.1 13.8 11% 30.06 0.0
03 15:55 SE 7 10.00 Partly Cloudy SCT120 71.1 15.3 12% 30.07 0.0
03 15:35 SE 3 10.00 Partly Cloudy SCT120 70.3 15.4 12% 30.09 0.0
03 15:15 Calm 10.00 Partly Cloudy SCT120 70 14.9 12% 30.1 0.0
03 14:55 E 6 10.00 Fair CLR 70.7 15.6 12% 30.11 0.0
03 14:35 N 9 10.00 Fair CLR 71.2 16.5 12% 30.12 0.0
03 14:15 E 6 G 16 10.00 Fair CLR 69.6 17.2 13% 30.14 0.0
03 13:55 Calm 10.00 Fair CLR 68.7 17.6 14% 30.14 0.0
03 13:35 E 7 10.00 Fair CLR 67.3 18.9 16% 30.15 0.0
03 12:55 E 7 G 18 10.00 Fair CLR 66 23.5 20% 30.18 0.0
03 12:35 E 6 10.00 Fair CLR 64.9 24.8 22% 30.19 0.0
03 12:15 SE 10 G 16 10.00 Fair CLR 63.5 25.3 23% 30.2 0.0
03 11:55 SE 14 G 17 10.00 Fair CLR 61.5 26.8 61.5 29.7 27% 30.22 0.0
03 11:35 SE 10 10.00 Fair CLR 60.6 26.4 27% 30.23 0.0
03 11:15 SE 13 G 18 10.00 Fair CLR 59.5 27.5 30% 30.24 0.0
03 10:55 SE 13 G 17 10.00 Fair CLR 58.8 28.4 31% 30.24 0.0
03 10:35 SE 13 10.00 Fair CLR 57.9 28.9 33% 30.24 0.0
03 10:15 SE 13 10.00 Fair CLR 55.9 29.8 37% 30.24 0.0
03 09:55 SE 9 10.00 Fair CLR 55.2 29.7 38% 30.24 0.0
03 09:35 SE 8 10.00 Fair CLR 53.2 31.1 43% 30.24 0.0
03 09:15 SE 6 10.00 Fair CLR 49.1 31.3 50% 47 30.25 0.0
03 08:55 SE 5 10.00 Fair CLR 47.7 31.8 54% 46 30.26 0.0
03 08:35 Calm 10.00 Fair CLR 45.1 28 51% 30.26 0.0
03 08:15 N 3 10.00 Fair CLR 42.6 27.1 54% 30.26 0.0
03 07:55 NW 3 10.00 Fair CLR 39.4 25.7 58% 30.26 0.0
03 07:35 NW 5 10.00 Fair CLR 37.6 24.6 60% 35 30.25 0.0
03 07:15 NW 3 10.00 Fair CLR 35.1 23.2 62% 30.24 0.0
03 06:55 N 6 10.00 Fair CLR 32.9 23.2 67% 28 30.24 0.0
03 06:35 Calm 10.00 Fair CLR 32 23 69% 30.24 0.0
03 06:15 N 5 10.00 Fair CLR 31.3 22.6 70% 27 30.24 0.0
03 05:55 NW 5 10.00 Fair CLR 31.1 23.5 43.5 30.4 74% 27 30.24 0.0
03 05:35 NW 5 10.00 Fair CLR 32 24.8 75% 28 30.24 0.0
03 05:15 NW 5 10.00 Fair CLR 31.1 22.8 71% 27 30.24 0.0
03 04:55 Calm 10.00 Fair CLR 32.9 25.5 74% 30.25 0.0
03 04:35 Calm 10.00 Fair CLR 36.7 28.9 74% 30.26 0.0
03 04:15 Calm 10.00 Fair CLR 36.9 27.9 70% 30.25 0.0
03 03:55 Calm 10.00 Fair CLR 35.8 26.6 69% 30.26 0.0
03 03:35 S 3 10.00 Fair CLR 35.6 27.1 71% 30.26 0.0
03 03:15 SE 7 10.00 Fair CLR 35.2 27.3 73% 30 30.26 0.0
03 02:55 SE 6 10.00 Fair CLR 36.1 26.1 67% 32 30.26 0.0
03 02:35 SW 5 10.00 Fair CLR 37.9 29.5 72% 35 30.26 0.0
03 02:15 S 3 10.00 Fair CLR 38.7 28.9 68% 30.26 0.0
03 01:55 SE 3 10.00 Fair CLR 37.8 26.1 63% 30.26 0.0
03 01:35 SE 3 10.00 Fair CLR 37.4 26.6 65% 30.27 0.0
03 01:15 Calm 10.00 Fair CLR 41.4 29.3 62% 30.27 0.0
03 00:55 S 6 10.00 Fair CLR 38.7 27 63% 35 30.27 0.0
03 00:35 S 3 10.00 Fair CLR 41.9 28.2 58% 30.26 0.0
03 00:15 S 5 10.00 Fair CLR 42.8 27.7 55% 41 30.26 0.0
02 23:55 S 5 10.00 Fair CLR 44.1 27.9 63.1 43.5 53% 42 30.26 0.0
02 23:35 S 6 10.00 Fair CLR 44.4 27 50% 42 30.26 0.0
02 23:15 SE 8 10.00 Fair CLR 45 25.3 46% 41 30.26 0.0
02 22:55 S 3 10.00 Fair CLR 47.7 26.1 43% 30.26 0.0
02 22:35 Calm 10.00 Fair CLR 46.9 26.4 45% 30.25 0.0
02 22:15 SE 5 10.00 Fair CLR 47.3 24.1 40% 46 30.24 0.0
02 21:55 S 8 10.00 Fair CLR 48.4 25 40% 45 30.24 0.0
02 21:35 S 7 10.00 Fair CLR 48.6 21.4 34% 46 30.24 0.0
02 21:15 S 6 10.00 Fair CLR 50 21.2 32% 48 30.23 0.0
02 20:55 S 6 10.00 Fair CLR 52.3 21.4 30% 30.22 0.0
02 20:35 SE 8 10.00 Fair CLR 54.9 21.4 27% 30.21 0.0
02 20:15 SE 8 10.00 Fair CLR 56.5 18.3 22% 30.2 0.0
02 19:55 SE 12 10.00 Fair CLR 57.4 17.8 21% 30.2 0.0
02 19:35 SE 8 10.00 Fair CLR 59.5 18 20% 30.2 0.0
02 19:15 SE 10 10.00 Fair CLR 60.8 18.1 19% 30.19 0.0
02 18:55 S 10 10.00 Partly Cloudy SCT090 61.9 18.7 19% 30.19 0.0
02 18:35 Calm 10.00 Partly Cloudy SCT090 62.4 18.7 18% 30.19 0.0
02 18:15 SE 3 10.00 Fair CLR 63 19.2 18% 30.2 0.0
02 17:55 Calm 10.00 Fair CLR 63 17.2 17% 30.2 0.0
02 17:35 S 3 10.00 Fair CLR 63.1 19.2 18% 30.2 0.0
02 17:15 Calm 10.00 Fair CLR 62.2 21.7 21% 30.2 0.0
02 16:55 Calm 10.00 Fair CLR 62.4 23.7 23% 30.2 0.0
02 16:35 SE 9 G 16 10.00 Fair CLR 62.8 23.5 22% 30.2 0.0
02 16:15 S 7 10.00 Fair CLR 61.7 23.9 24% 30.21 0.0
02 15:55 SE 6 10.00 Fair CLR 61.3 24.6 25% 30.22 0.0
02 15:35 SE 8 10.00 Fair CLR 60.4 25.9 27% 30.24 0.0
02 15:15 S 13 G 20 10.00 Partly Cloudy SCT055 61.7 28 28% 30.24 0.0
02 14:55 SW 8 10.00 Fair CLR 60.6 27.7 29% 30.26 0.0
02 14:35 SE 6 10.00 Fair CLR 59.2 28.4 31% 30.26 0.0
02 14:15 E 8 G 16 10.00 NULL NULL 57.9 29.1 33% 30.27 0.0
02 13:35 Calm 10.00 Fair CLR 57 26.2 31% 30.28 0.0
02 13:15 W 5 10.00 Partly Cloudy SCT080 56.3 27 32% 30.29 0.0
02 12:55 NE 6 10.00 Overcast SCT070 OVC080 51.8 29.8 43% 30.29 0.0
02 12:35 N 13 10.00 Overcast BKN075 OVC090 48.9 31.1 50% 44 30.31 0.0
02 12:15 NE 14 G 21 10.00 Overcast SCT055 BKN065 OVC085 48.2 30.6 51% 43 30.31 0.0
02 11:55 NE 21 G 26 10.00 Overcast and Breezy SCT046 BKN060 OVC095 49.5 28.4 55.6 40.5 44% 43 30.31 0.0
02 11:35 NE 14 G 20 10.00 Overcast SCT044 SCT070 OVC100 53.8 29.7 40% 30.31 0.0
02 11:15 SE 7 10.00 Overcast OVC100 54.3 31.8 42% 30.31 0.0
02 10:55 SE 12 10.00 Partly Cloudy SCT075 SCT090 54.9 32.2 42% 30.31 0.0
02 10:35 SE 9 10.00 Mostly Cloudy SCT032 BKN090 53.1 33.4 47% 30.31 0.0
02 10:15 S 8 10.00 Overcast OVC090 50.4 33.8 53% 30.3 0.0
02 09:55 S 7 10.00 Overcast OVC090 48 33.8 58% 45 30.3 0.0
02 09:35 SE 9 10.00 Overcast SCT022 OVC090 47.3 33.8 60% 43 30.3 0.0
02 09:15 SE 9 10.00 Mostly Cloudy SCT022 BKN090 47.7 34 59% 44 30.3 0.0
02 08:55 S 7 10.00 Partly Cloudy SCT020 SCT080 47.3 34.2 60% 44 30.3 0.0
02 08:35 SE 13 10.00 Partly Cloudy SCT027 45.9 34.2 64% 41 30.3 0.0
02 08:15 SE 13 10.00 Overcast OVC027 44.4 34.7 69% 39 30.29 0.0
02 07:55 SE 12 10.00 Mostly Cloudy BKN027 43.5 34.7 71% 38 30.29 0.0
02 07:35 S 10 10.00 Mostly Cloudy SCT027 BKN090 42.4 34.7 74% 37 30.28 0.0
02 07:15 S 7 10.00 Mostly Cloudy BKN090 41.2 34.2 76% 37 30.28 0.0
02 06:55 S 9 10.00 Mostly Cloudy BKN090 41 34.2 77% 36 30.27 0.0
02 06:35 S 9 10.00 Fair CLR 40.5 33.8 77% 35 30.26 0.0
02 06:15 S 10 10.00 Fair CLR 41 33.8 76% 35 30.26 0.0
02 05:55 S 12 10.00 Partly Cloudy SCT024 41.2 33.8 44.6 41.2 75% 35 30.25 0.0
02 05:35 S 12 10.00 Mostly Cloudy BKN024 41.9 34 74% 36 30.25 0.0
02 05:15 S 12 10.00 Overcast OVC024 41.9 34.2 74% 36 30.25 0.0
02 04:55 S 10 10.00 Mostly Cloudy BKN022 41.9 34 74% 36 30.24 0.0
02 04:35 S 8 10.00 Overcast OVC022 42.4 34.2 73% 38 30.24 0.0
02 04:15 S 9 10.00 Overcast OVC020 42.4 34.2 73% 38 30.24 0.0
02 03:55 S 8 10.00 Overcast OVC020 42.4 33.8 72% 38 30.24 0.0
02 03:35 S 10 10.00 Overcast OVC020 42.6 33.8 71% 37 30.24 0.0
02 03:15 SE 12 10.00 Overcast OVC020 42.3 33.8 72% 36 30.24 0.0
02 02:55 SE 13 10.00 Overcast OVC020 42.4 33.8 72% 36 30.24 0.0
02 02:35 S 10 10.00 Mostly Cloudy BKN020 BKN120 42.8 33.8 71% 38 30.24 0.0
02 02:15 SE 12 10.00 Mostly Cloudy SCT020 BKN120 42.8 33.8 71% 37 30.23 0.0
02 01:55 SE 12 G 18 10.00 Mostly Cloudy BKN120 42.6 33.8 71% 37 30.23 0.0
02 01:35 S 10 10.00 Overcast OVC110 42.4 33.8 72% 37 30.23 0.0
02 01:15 S 8 10.00 Overcast OVC110 43.5 33.8 69% 39 30.23 0.0
02 00:55 SE 12 10.00 Overcast OVC120 44.1 34.3 69% 39 30.23 0.0
02 00:35 SE 14 10.00 Overcast OVC120 44.2 34.7 69% 38 30.24 0.0
02 00:15 SE 16 10.00 Overcast OVC110 44.6 34.7 68% 38 30.23 0.0
01 23:55 SE 14 10.00 Mostly Cloudy SCT018 SCT065 BKN100 44.6 34.7 54 44.6 68% 39 30.23 0.0
01 23:35 SE 13 G 16 10.00 Mostly Cloudy SCT016 SCT070 BKN100 44.6 35.4 70% 39 30.23 0.0
01 23:15 SE 14 10.00 Overcast SCT016 BKN100 OVC120 45.7 37.4 73% 40 30.23 0.0
01 22:55 SE 14 G 21 10.00 Mostly Cloudy SCT021 SCT070 BKN120 46.4 37.4 71% 41 30.23 0.0
01 22:35 SE 16 G 24 10.00 Overcast SCT021 BKN070 OVC090 46.8 36.7 68% 41 30.22 0.0
01 22:15 SE 17 10.00 Overcast OVC090 46.9 35.4 64% 41 30.22 0.0
01 21:55 SE 16 10.00 Overcast OVC090 47.5 35.6 64% 42 30.2 0.0
01 21:35 SE 15 10.00 Overcast OVC100 47.7 34.7 61% 42 30.2 0.0
01 21:15 S 12 10.00 Overcast OVC110 48.2 33.6 57% 44 30.18 0.0
01 20:55 SE 14 10.00 Mostly Cloudy BKN110 48.2 33.8 58% 43 30.16 0.0
01 20:35 SE 10 G 17 10.00 Fair CLR 48.2 34.9 60% 44 30.15 0.0
Date Time (mdt) Wind (mph) Vis. (mi.) Weather Sky Cond. Air Dwpt Max. Min. Relative Humidity Wind Chill (°F) Heat Index (°F) altimeter (in) sea level (mb) 1 hr 3 hr 6 hr
6 hour
Temperature (ºF) Pressure Precipitation (in)